»·PEaware :: N717TS KIFP-KBUR

N717TS :: KIFP-KBUR

FLIGHT INFORMATION

Flight Status: Arrived
Operator: Privately registered:
United States
More flights under this callsign
Pilot: Ty S. (2873)
Aircraft: BOEING 737-200
(B732)
More flights by this aircraft type
Origin: KIFP Laughlin/Bullhead Intl
United States
Destination: KBUR Bob Hope-Burbank
United States
More flights between these airports :: More routes between these airports
Route: EED V12 HEC LYNXX8
File this flight plan on PilotEdge
Remarks:
Altitude:
(Current/Filed)
24,000ft
Speed:
(Current/Filed)
430kts
Departed: 27-May-14 05:39 PM
Arrived: 27-May-14 07:24 PM
Distance/Time
Traveled:
196nm/1:45
Distance/Time
To Go:
Arrived

Flight Plot

Page will automatically refresh every two minutes.


Map Options




Map Legend


Flown Route
Filed Route
Departure Airport
Arrival Airport
Navaid (VOR, NDB)
Fix

Horizontal Profiles

Position Reports

Time Latitude Longitude Heading Altitude Ground
Speed
27-May-14 17:15 35.165155 -114.556331 85 710ft 0kts
27-May-14 17:16 35.165155 -114.556331 85 710ft 0kts
27-May-14 17:17 35.165155 -114.556331 85 710ft 0kts
27-May-14 17:18 35.165155 -114.556331 85 710ft 0kts
27-May-14 17:19 35.165155 -114.556331 85 710ft 0kts
27-May-14 17:20 35.165155 -114.556331 85 710ft 0kts
27-May-14 17:21 35.165155 -114.556331 85 710ft 0kts
27-May-14 17:22 35.165155 -114.556331 85 710ft 0kts
27-May-14 17:23 35.165155 -114.556331 85 710ft 0kts
27-May-14 17:24 35.165155 -114.556331 85 710ft 0kts
27-May-14 17:25 35.165155 -114.556331 85 710ft 0kts
27-May-14 17:26 35.165155 -114.556331 85 710ft 0kts
27-May-14 17:27 35.165155 -114.556331 85 710ft 0kts
27-May-14 17:28 35.165155 -114.556331 85 710ft 0kts
27-May-14 17:29 35.165155 -114.556331 85 710ft 0kts
27-May-14 17:30 35.165000 -114.556724 351 710ft 0kts
27-May-14 17:31 35.165000 -114.556724 351 710ft 0kts
27-May-14 17:32 35.165000 -114.556724 351 710ft 0kts
27-May-14 17:33 35.165000 -114.556724 351 710ft 0kts
27-May-14 17:34 35.165000 -114.556724 351 710ft 0kts
27-May-14 17:35 35.165061 -114.557788 267 710ft 9kts
27-May-14 17:36 35.166107 -114.558921 304 710ft 4kts
27-May-14 17:37 35.166182 -114.559472 267 710ft 9kts
27-May-14 17:38 35.153601 -114.559272 178 737ft 135kts
27-May-14 17:39 35.111752 -114.552579 167 2215ft 195kts
27-May-14 17:40 35.051927 -114.537783 169 4215ft 245kts
27-May-14 17:41 34.981736 -114.521153 170 6846ft 264kts
27-May-14 17:42 34.907841 -114.511570 201 9351ft 274kts
27-May-14 17:43 34.881188 -114.597181 267 11360ft 312kts
27-May-14 17:44 34.881346 -114.710679 264 12614ft 350kts
27-May-14 17:45 34.877689 -114.830028 263 14634ft 358kts
27-May-14 17:46 34.872632 -114.951658 262 16546ft 362kts
27-May-14 17:47 34.867167 -115.074041 263 18233ft 367kts
27-May-14 17:48 34.856325 -115.189612 260 18234ft 362kts
27-May-14 17:49 34.848564 -115.323513 263 15295ft 429kts
27-May-14 17:50 34.785301 -115.421916 185 14063ft 393kts
27-May-14 17:51 34.711181 -115.336469 116 12562ft 422kts
27-May-14 17:52 34.686269 -115.198566 101 10918ft 407kts
27-May-14 17:53 34.659611 -115.071556 106 9836ft 369kts
27-May-14 18:23 35.164715 -114.556299 84 710ft 0kts
27-May-14 18:24 35.164715 -114.556299 84 710ft 0kts
27-May-14 18:25 35.164715 -114.556299 84 710ft 0kts
27-May-14 18:26 35.164715 -114.556299 84 710ft 0kts
27-May-14 18:27 35.164715 -114.556299 84 710ft 0kts
27-May-14 18:28 35.164715 -114.556299 84 710ft 0kts
27-May-14 18:29 35.164715 -114.556299 84 710ft 0kts
27-May-14 18:30 35.164715 -114.556299 84 710ft 0kts
27-May-14 18:31 35.164715 -114.556299 84 710ft 0kts
27-May-14 18:32 35.164715 -114.556299 84 710ft 0kts
27-May-14 18:33 35.164715 -114.556299 84 710ft 0kts
27-May-14 18:34 35.164680 -114.556894 85 710ft 0kts
27-May-14 18:35 35.164680 -114.556894 85 710ft 0kts
27-May-14 18:36 35.164680 -114.556894 85 710ft 0kts
27-May-14 18:37 35.165069 -114.557754 267 710ft 9kts
27-May-14 18:38 35.166107 -114.558979 300 710ft 0kts
27-May-14 18:39 35.166147 -114.559081 290 710ft 0kts
27-May-14 18:40 35.165649 -114.560160 177 710ft 18kts
27-May-14 18:41 35.135093 -114.558597 175 1775ft 151kts
27-May-14 18:42 35.086323 -114.549361 169 4028ft 198kts
27-May-14 18:43 35.022366 -114.532820 169 5955ft 267kts
27-May-14 18:44 34.948552 -114.518238 192 8717ft 275kts
27-May-14 18:45 34.913443 -114.597489 256 10530ft 320kts
27-May-14 18:46 34.902005 -114.711194 260 12514ft 343kts
27-May-14 18:47 34.894072 -114.829211 261 14468ft 359kts
27-May-14 18:48 34.886893 -114.952137 262 16227ft 372kts
27-May-14 18:49 34.879636 -115.080126 262 17875ft 384kts
27-May-14 18:50 34.866870 -115.204324 259 19354ft 392kts
27-May-14 18:51 34.857677 -115.331116 261 21034ft 392kts
27-May-14 18:52 34.850226 -115.462916 262 22535ft 393kts
27-May-14 18:53 34.843144 -115.596819 262 23559ft 404kts
27-May-14 18:54 34.835753 -115.735265 263 23984ft 419kts
27-May-14 18:55 34.827916 -115.879531 263 23982ft 432kts
27-May-14 18:56 34.819820 -116.026151 263 23979ft 440kts
27-May-14 18:57 34.812547 -116.147096 262 23982ft 444kts
27-May-14 18:58 34.804085 -116.297909 263 23939ft 448kts
27-May-14 18:59 34.794738 -116.449109 262 23889ft 448kts
27-May-14 19:00 34.783697 -116.598430 263 23887ft 441kts
27-May-14 19:01 34.768931 -116.745636 261 23886ft 436kts
27-May-14 19:02 34.754319 -116.890681 261 23885ft 433kts
27-May-14 19:03 34.745460 -117.036440 266 23942ft 431kts
27-May-14 19:04 34.734573 -117.145033 262 24000ft 430kts
27-May-14 19:05 34.716699 -117.287824 264 23710ft 426kts
27-May-14 19:06 34.701449 -117.423852 264 20743ft 401kts
27-May-14 19:07 34.687081 -117.554617 263 18297ft 388kts
27-May-14 19:08 34.672963 -117.681805 262 15905ft 373kts
27-May-14 19:09 34.659593 -117.801981 260 13445ft 331kts
27-May-14 19:10 34.648900 -117.901842 260 11089ft 273kts
27-May-14 19:11 34.638937 -117.990682 260 9066ft 270kts
27-May-14 19:12 34.627697 -118.080051 256 8029ft 266kts
27-May-14 19:13 34.613614 -118.144489 254 8027ft 267kts
27-May-14 19:14 34.595780 -118.229747 253 8042ft 257kts
27-May-14 19:15 34.579430 -118.307788 252 7972ft 250kts
27-May-14 19:16 34.560018 -118.391128 232 7956ft 262kts
27-May-14 19:17 34.494645 -118.413115 183 8011ft 278kts
27-May-14 19:18 34.428046 -118.419530 183 6620ft 266kts
27-May-14 19:19 34.358899 -118.427056 183 4940ft 233kts
27-May-14 19:20 34.300342 -118.407220 147 3472ft 218kts
27-May-14 19:21 34.257828 -118.375615 155 2398ft 148kts
27-May-14 19:22 34.219944 -118.362495 167 1005ft 133kts
27-May-14 19:23 34.197464 -118.356290 160 786ft 0kts
27-May-14 19:24 34.194275 -118.356187 295 786ft 0kts
27-May-14 19:25 34.196308 -118.357043 347 786ft 12kts
27-May-14 19:26 34.197184 -118.353686 91 786ft 14kts
27-May-14 19:27 34.196891 -118.352671 183 786ft 0kts
27-May-14 19:32 34.196891 -118.352671 183 786ft 0kts
27-May-14 19:33 34.196891 -118.352671 183 786ft 0kts
27-May-14 19:34 34.196891 -118.352671 183 786ft 0kts

Navigation Log

Ident Type
Flight plan parsing failed, navigation log unavailable